Meteorología y climatología de Navarra
Datos de la estación - Meteo Navarra

Estación de Aguilar de Codés GN

Altitud 736 m.


Datos desde el 23/05/2020 hasta el 24/05/2020 en horario solar
Los datos son PROVISIONALES

Anterior Página 1 de 1 Siguiente Descargar: Formato para Excel 2000 o superior   Formato csv   Formato para OpenOffice Calc
Fecha Temperatura Humedad relativa Radiación global Insolación Precipitación Vel. viento 10 m Vel. viento 10 m Dir. viento 10 m
ºC % W/m² s l/m² m/s km/h º
23/05/2020 0:00 13.9 94 0.0 0 0.0 4.8 17.4 314
23/05/2020 0:10 13.7 95 0.0 0 0.0 4.4 15.9 316
23/05/2020 0:20 13.7 95 0.0 0 0.0 4.5 16.2 313
23/05/2020 0:30 13.8 95 0.0 0 0.0 4.5 16.0 312
23/05/2020 0:40 13.5 95 0.0 0 0.0 3.8 13.7 307
23/05/2020 0:50 13.6 95 0.0 0 0.0 4.8 17.3 312
23/05/2020 1:00 13.6 95 0.0 0 0.0 4.0 14.4 317
23/05/2020 1:10 13.6 95 0.0 0 0.0 5.1 18.3 317
23/05/2020 1:20 13.6 95 0.0 0 0.0 6.5 23.5 322
23/05/2020 1:30 13.6 94 0.0 0 0.0 6.1 22.0 328
23/05/2020 1:40 13.6 93 0.0 0 0.0 5.6 20.2 330
23/05/2020 1:50 13.7 93 0.0 0 0.0 5.7 20.6 333
23/05/2020 2:00 13.6 92 0.0 0 0.0 5.8 20.9 328
23/05/2020 2:10 13.6 92 0.0 0 0.0 6.0 21.5 324
23/05/2020 2:20 13.5 92 0.0 0 0.0 5.4 19.5 327
23/05/2020 2:30 13.5 91 0.0 0 0.0 5.2 18.5 329
23/05/2020 2:40 13.4 91 0.0 0 0.0 4.5 16.3 340
23/05/2020 2:50 13.4 91 0.0 0 0.0 4.5 16.1 332
23/05/2020 3:00 13.3 91 0.0 0 0.0 4.4 15.9 328
23/05/2020 3:10 13.3 91 0.0 0 0.0 5.2 18.6 326
23/05/2020 3:20 13.2 91 0.0 0 0.0 4.9 17.6 320
23/05/2020 3:30 13.3 92 0.0 0 0.0 5.7 20.5 319
23/05/2020 3:40 13.3 92 0.0 0 0.0 5.0 18.1 321
23/05/2020 3:50 13.1 92 0.0 0 0.0 4.6 16.4 321
23/05/2020 4:00 13.2 92 0.0 0 0.0 5.1 18.3 324
23/05/2020 4:10 13.3 92 0.0 0 0.0 4.9 17.8 322
23/05/2020 4:20 13.2 92 0.0 0 0.0 5.3 19.0 324
23/05/2020 4:30 13.3 92 0.0 0 0.0 4.9 17.8 321
23/05/2020 4:40 13.1 92 0.0 0 0.0 5.1 18.3 320
23/05/2020 4:50 13.2 92 0.0 0 0.0 4.7 17.1 319
23/05/2020 5:00 13.2 92 0.0 0 0.0 3.7 13.3 321
23/05/2020 5:10 13.2 92 3.9 0 0.0 2.7 9.7 346
23/05/2020 5:20 13.3 91 12.4 0 0.0 2.6 9.2 329
23/05/2020 5:30 13.2 91 18.6 0 0.0 2.3 8.4 336
23/05/2020 5:40 13.3 92 28.8 0 0.0 2.7 9.9 334
23/05/2020 5:50 13.3 91 45.5 0 0.0 2.6 9.4 323
23/05/2020 6:00 13.4 91 62.3 0 0.0 3.0 10.9 323
23/05/2020 6:10 13.4 90 61.6 0 0.0 3.3 11.9 336
23/05/2020 6:20 13.6 89 43.1 0 0.0 3.5 12.7 318
23/05/2020 6:30 13.4 90 39.8 0 0.0 3.7 13.2 328
23/05/2020 6:40 13.4 90 88.0 76 0.0 2.7 9.7 338
23/05/2020 6:50 13.5 89 37.7 0 0.0 3.2 11.6 325
23/05/2020 7:00 13.5 89 41.3 0 0.0 4.3 15.6 320
23/05/2020 7:10 13.4 89 51.8 0 0.0 3.1 11.2 325
23/05/2020 7:20 13.4 88 66.0 0 0.0 3.2 11.3 319
23/05/2020 7:30 13.6 87 68.6 0 0.0 3.5 12.5 331
23/05/2020 7:40 14.0 86 151.2 0 0.0 2.4 8.6 344
23/05/2020 7:50 14.0 85 106.0 0 0.0 3.8 13.7 346
23/05/2020 8:00 14.2 85 148.7 0 0.0 4.8 17.2 353
23/05/2020 8:10 14.2 85 129.5 0 0.0 3.3 12.0 353
23/05/2020 8:20 14.2 85 112.1 0 0.0 3.2 11.5 331
23/05/2020 8:30 14.3 84 123.3 0 0.0 4.7 16.9 314
23/05/2020 8:40 14.1 85 113.1 0 0.0 5.6 20.3 324
23/05/2020 8:50 14.1 86 124.9 0 0.0 5.5 19.9 322
23/05/2020 9:00 14.0 87 132.2 0 0.0 4.8 17.2 316
23/05/2020 9:10 13.8 87 87.3 0 0.0 7.4 26.6 325
23/05/2020 9:20 13.3 88 87.4 0 0.0 7.4 26.7 321
23/05/2020 9:30 13.5 86 132.0 0 0.0 5.1 18.3 352
23/05/2020 9:40 13.4 83 117.2 0 0.0 4.8 17.4 357
23/05/2020 9:50 13.4 83 129.5 0 0.0 3.6 13.0 340
23/05/2020 10:00 13.3 83 131.6 0 0.0 4.4 15.7 319
23/05/2020 10:10 13.3 83 144.7 0 0.0 3.2 11.6 345
23/05/2020 10:20 13.3 83 140.8 0 0.0 2.8 10.2 357
23/05/2020 10:30 13.4 82 137.7 0 0.0 3.6 13.1 325
23/05/2020 10:40 13.3 82 135.3 0 0.0 4.9 17.5 322
23/05/2020 10:50 13.3 82 141.7 0 0.0 3.3 11.7 334
23/05/2020 11:00 13.4 81 171.3 0 0.0 2.8 9.9 335
23/05/2020 11:10 13.4 80 261.9 0 0.0 3.3 11.8 348
23/05/2020 11:20 13.7 80 327.0 0 0.0 3.2 11.4 354
23/05/2020 11:30 14.0 79 359.4 0 0.0 4.8 17.4 354
23/05/2020 11:40 14.3 79 464.1 74 0.0 4.4 15.8 330
23/05/2020 11:50 14.4 77 658.0 394 0.0 6.6 23.7 327
23/05/2020 12:00 14.5 77 505.5 238 0.0 6.3 22.5 321
23/05/2020 12:10 14.5 78 469.6 184 0.0 5.1 18.3 317
23/05/2020 12:20 14.8 76 566.7 274 0.0 5.9 21.1 325
23/05/2020 12:30 15.0 76 534.6 308 0.0 5.5 19.7 320
23/05/2020 12:40 15.3 74 619.1 306 0.0 5.1 18.4 321
23/05/2020 12:50 15.5 73 488.0 122 0.0 4.8 17.1 334
23/05/2020 13:00 15.3 74 447.4 94 0.0 5.3 19.2 353
23/05/2020 13:10 15.2 74 460.7 168 0.0 3.5 12.6 316
23/05/2020 13:20 15.4 73 496.8 288 0.0 3.7 13.5 341
23/05/2020 13:30 15.6 73 907.0 532 0.0 4.5 16.1 341
23/05/2020 13:40 16.0 71 672.7 298 0.0 4.6 16.7 351
23/05/2020 13:50 15.5 73 552.7 242 0.0 4.7 17.0 337
23/05/2020 14:00 15.2 74 618.6 440 0.0 5.7 20.3 354
23/05/2020 14:10 14.7 75 437.4 78 0.0 5.4 19.3 327
23/05/2020 14:20 14.4 75 396.9 164 0.0 5.3 19.1 344
23/05/2020 14:30 13.8 76 382.7 0 0.0 6.4 23.2 348
23/05/2020 14:40 13.7 75 369.5 0 0.0 4.5 16.1 333
23/05/2020 14:50 13.7 75 334.0 0 0.0 4.5 16.1 333
23/05/2020 15:00 13.7 75 437.4 208 0.0 4.1 14.6 346
23/05/2020 15:10 14.1 73 625.4 584 0.0 4.4 15.9 2
23/05/2020 15:20 14.5 72 441.8 420 0.0 4.9 17.7 323
23/05/2020 15:30 14.0 73 472.6 352 0.0 5.8 21.0 328
23/05/2020 15:40 13.5 74 375.3 142 0.0 6.9 25.0 346
23/05/2020 15:50 14.1 74 684.8 512 0.0 6.3 22.8 357
23/05/2020 16:00 14.9 71 599.7 448 0.0 5.1 18.4 342
23/05/2020 16:10 14.3 74 407.6 282 0.0 6.1 22.1 351
23/05/2020 16:20 14.6 73 386.2 254 0.0 5.5 19.9 345
23/05/2020 16:30 13.7 74 209.3 0 0.0 6.3 22.7 336
23/05/2020 16:40 13.2 76 208.0 0 0.0 7.9 28.5 325
23/05/2020 16:50 13.0 78 191.5 0 0.0 7.9 28.5 325
23/05/2020 17:00 12.8 78 204.3 8 0.0 7.4 26.5 328
23/05/2020 17:10 12.7 78 157.6 0 0.0 6.2 22.4 332
23/05/2020 17:20 12.6 79 137.4 0 0.0 6.5 23.5 329
23/05/2020 17:30 12.4 79 147.7 16 0.0 7.3 26.4 327
23/05/2020 17:40 12.5 79 149.6 0 0.0 7.6 27.4 327
23/05/2020 17:50 12.2 79 123.3 0 0.0 7.6 27.4 327
23/05/2020 18:00 12.0 80 92.0 0 0.0 6.2 22.4 331
23/05/2020 18:10 12.0 80 72.9 0 0.0 6.1 22.0 333
23/05/2020 18:20 11.9 81 69.4 0 0.0 6.4 23.1 323
23/05/2020 18:30 11.7 82 50.1 0 0.0 5.1 18.4 326
23/05/2020 18:40 11.6 82 55.7 0 0.0 5.2 18.8 320
23/05/2020 18:50 11.5 82 49.7 0 0.0 4.9 17.7 315
23/05/2020 19:00 11.5 82 40.3 0 0.0 5.3 18.9 317
23/05/2020 19:10 11.4 83 25.4 0 0.0 5.4 19.3 318
23/05/2020 19:20 11.1 84 12.3 0 0.0 5.6 20.1 320
23/05/2020 19:30 11.0 84 0.0 0 0.0 5.1 18.5 320
23/05/2020 19:40 10.8 83 0.0 0 0.0 5.7 20.4 319
23/05/2020 19:50 10.6 83 0.0 0 0.0 6.1 21.8 321
23/05/2020 20:00 10.5 82 0.0 0 0.0 6.0 21.7 321
23/05/2020 20:10 10.5 82 0.0 0 0.0 5.8 20.8 330
23/05/2020 20:20 10.2 82 0.0 0 0.0 4.7 16.7 329
23/05/2020 20:30 10.0 82 0.0 0 0.0 5.1 18.2 321
23/05/2020 20:40 9.9 82 0.0 0 0.0 5.5 19.8 324
23/05/2020 20:50 9.6 83 0.0 0 0.0 5.4 19.3 325
23/05/2020 21:00 9.3 83 0.0 0 0.0 4.7 17.1 321
23/05/2020 21:10 9.1 85 0.0 0 0.0 2.5 9.0 294
23/05/2020 21:20 8.7 88 0.0 0 0.0 2.1 7.7 280
23/05/2020 21:30 8.5 89 0.0 0 0.0 1.5 5.5 284
23/05/2020 21:40 8.2 89 0.0 0 0.0 1.5 5.4 291
23/05/2020 21:50 8.2 88 0.0 0 0.0 2.5 8.9 295
23/05/2020 22:00 8.1 88 0.0 0 0.0 3.3 11.8 294
23/05/2020 22:10 7.8 89 0.0 0 0.0 3.1 11.1 285
23/05/2020 22:20 7.6 90 0.0 0 0.0 2.9 10.3 276
23/05/2020 22:30 7.5 90 0.0 0 0.0 2.1 7.7 254
23/05/2020 22:40 7.7 89 0.0 0 0.0 1.7 6.2 234
23/05/2020 22:50 7.6 88 0.0 0 0.0 1.4 5.1 144
23/05/2020 23:00 7.6 88 0.0 0 0.0 1.5 5.5 215
23/05/2020 23:10 7.6 87 0.0 0 0.0 1.5 5.5 233
23/05/2020 23:20 7.5 88 0.0 0 0.0 3.0 10.8 297
23/05/2020 23:30 7.2 88 0.0 0 0.0 2.9 10.5 314
23/05/2020 23:40 6.8 90 0.0 0 0.0 3.1 11.2 315
23/05/2020 23:50 6.7 91 0.0 0 0.0 3.2 11.5 307
Anterior Página 1 de 1 Siguiente

NOTA: Tipo de datos según el color:
   - Valores diarios o 10 minutos correctos
   - Valores diarios calculados a partir de un número de datos 10 minutos menor que 144 y mayor que 120, o de un número de datos semihorarios menor que 48 y mayor que 40 (caso de las estaciones de INTIA y del Ministerio)
   - Valores diez minutos estimados


Contacto        Enlaces        Aviso legal